sensor_id;sensor_type;location;lat;lon;timestamp;P1;durP1;ratioP1;P2;durP2;ratioP2
22983;SDS011;11658;48.908;9.140;2022-09-03T04:04:28;2.90;;;1.47;;
22983;SDS011;11658;48.908;9.140;2022-09-03T04:06:54;2.90;;;1.40;;
22983;SDS011;11658;48.908;9.140;2022-09-03T04:09:19;2.80;;;1.40;;
22983;SDS011;11658;48.908;9.140;2022-09-03T04:11:45;1.23;;;1.13;;
22983;SDS011;11658;48.908;9.140;2022-09-03T04:14:10;1.47;;;1.37;;
22983;SDS011;11658;48.908;9.140;2022-09-03T04:16:36;2.13;;;1.50;;
22983;SDS011;11658;48.908;9.140;2022-09-03T04:19:02;2.10;;;1.43;;
22983;SDS011;11658;48.908;9.140;2022-09-03T04:21:28;1.93;;;1.53;;
22983;SDS011;11658;48.908;9.140;2022-09-03T04:23:55;3.87;;;1.50;;
22983;SDS011;11658;48.908;9.140;2022-09-03T04:26:23;1.90;;;1.40;;
22983;SDS011;11658;48.908;9.140;2022-09-03T04:28:56;1.73;;;1.40;;
22983;SDS011;11658;48.908;9.140;2022-09-03T04:31:26;2.57;;;1.40;;
22983;SDS011;11658;48.908;9.140;2022-09-03T04:33:52;3.00;;;1.50;;
22983;SDS011;11658;48.908;9.140;2022-09-03T04:36:19;1.90;;;1.37;;
22983;SDS011;11658;48.908;9.140;2022-09-03T04:38:48;2.40;;;1.60;;
22983;SDS011;11658;48.908;9.140;2022-09-03T04:41:16;2.73;;;1.30;;
22983;SDS011;11658;48.908;9.140;2022-09-03T04:43:43;2.83;;;1.50;;
22983;SDS011;11658;48.908;9.140;2022-09-03T04:46:09;2.60;;;1.40;;
22983;SDS011;11658;48.908;9.140;2022-09-03T04:48:37;1.63;;;1.40;;
22983;SDS011;11658;48.908;9.140;2022-09-03T04:51:13;2.73;;;1.40;;
22983;SDS011;11658;48.908;9.140;2022-09-03T04:53:41;1.60;;;1.40;;
22983;SDS011;11658;48.908;9.140;2022-09-03T04:58:45;2.23;;;1.60;;
22983;SDS011;11658;48.908;9.140;2022-09-03T05:01:15;2.33;;;1.80;;
22983;SDS011;11658;48.908;9.140;2022-09-03T05:03:43;2.10;;;1.80;;
22983;SDS011;11658;48.908;9.140;2022-09-03T05:06:08;3.07;;;1.80;;
22983;SDS011;11658;48.908;9.140;2022-09-03T05:08:34;3.63;;;2.63;;
22983;SDS011;11658;48.908;9.140;2022-09-03T05:11:02;3.00;;;2.53;;
22983;SDS011;11658;48.908;9.140;2022-09-03T05:13:29;2.77;;;2.20;;
22983;SDS011;11658;48.908;9.140;2022-09-03T05:16:01;2.30;;;1.80;;
22983;SDS011;11658;48.908;9.140;2022-09-03T05:18:32;3.90;;;1.90;;
22983;SDS011;11658;48.908;9.140;2022-09-03T05:21:05;1.60;;;1.40;;
22983;SDS011;11658;48.908;9.140;2022-09-03T05:23:35;2.77;;;1.60;;
22983;SDS011;11658;48.908;9.140;2022-09-03T05:26:04;2.83;;;1.40;;
22983;SDS011;11658;48.908;9.140;2022-09-03T05:28:33;2.77;;;1.40;;
22983;SDS011;11658;48.908;9.140;2022-09-03T05:31:04;3.20;;;1.60;;
22983;SDS011;11658;48.908;9.140;2022-09-03T05:33:33;4.03;;;1.80;;
22983;SDS011;11658;48.908;9.140;2022-09-03T05:36:00;1.50;;;1.40;;
22983;SDS011;11658;48.908;9.140;2022-09-03T05:38:28;2.27;;;1.43;;
22983;SDS011;11658;48.908;9.140;2022-09-03T05:40:56;1.87;;;1.53;;
22983;SDS011;11658;48.908;9.140;2022-09-03T05:43:27;4.40;;;1.60;;
22983;SDS011;11658;48.908;9.140;2022-09-03T05:45:59;2.43;;;1.40;;
22983;SDS011;11658;48.908;9.140;2022-09-03T05:48:27;1.50;;;1.40;;
22983;SDS011;11658;48.908;9.140;2022-09-03T05:51:00;2.67;;;1.40;;
22983;SDS011;11658;48.908;9.140;2022-09-03T05:53:28;2.40;;;1.50;;
22983;SDS011;11658;48.908;9.140;2022-09-03T05:55:58;2.77;;;1.67;;
22983;SDS011;11658;48.908;9.140;2022-09-03T05:58:32;2.20;;;1.60;;
22983;SDS011;11658;48.908;9.140;2022-09-03T06:00:59;2.23;;;1.30;;
22983;SDS011;11658;48.908;9.140;2022-09-03T06:03:33;1.73;;;1.50;;
22983;SDS011;11658;48.908;9.140;2022-09-03T06:05:59;3.33;;;1.50;;
22983;SDS011;11658;48.908;9.140;2022-09-03T06:08:24;3.83;;;1.60;;
22983;SDS011;11658;48.908;9.140;2022-09-03T06:10:56;2.10;;;1.40;;
22983;SDS011;11658;48.908;9.140;2022-09-03T06:13:22;2.60;;;1.70;;
22983;SDS011;11658;48.908;9.140;2022-09-03T06:15:48;2.73;;;1.90;;
22983;SDS011;11658;48.908;9.140;2022-09-03T06:18:13;2.63;;;1.40;;
22983;SDS011;11658;48.908;9.140;2022-09-03T06:20:39;1.87;;;1.40;;
22983;SDS011;11658;48.908;9.140;2022-09-03T06:23:04;2.70;;;1.60;;
22983;SDS011;11658;48.908;9.140;2022-09-03T06:25:30;1.63;;;1.47;;
22983;SDS011;11658;48.908;9.140;2022-09-03T06:27:56;1.50;;;1.40;;
22983;SDS011;11658;48.908;9.140;2022-09-03T06:30:21;1.80;;;1.40;;
22983;SDS011;11658;48.908;9.140;2022-09-03T06:32:48;3.93;;;1.70;;
22983;SDS011;11658;48.908;9.140;2022-09-03T06:35:14;2.53;;;1.70;;
22983;SDS011;11658;48.908;9.140;2022-09-03T06:37:40;2.57;;;1.50;;
22983;SDS011;11658;48.908;9.140;2022-09-03T06:40:07;3.70;;;1.80;;
22983;SDS011;11658;48.908;9.140;2022-09-03T06:42:37;2.00;;;1.50;;
22983;SDS011;11658;48.908;9.140;2022-09-03T06:45:04;3.17;;;1.67;;
22983;SDS011;11658;48.908;9.140;2022-09-03T06:47:31;1.93;;;1.60;;
22983;SDS011;11658;48.908;9.140;2022-09-03T06:49:57;2.40;;;1.73;;
22983;SDS011;11658;48.908;9.140;2022-09-03T06:52:24;2.03;;;1.70;;
22983;SDS011;11658;48.908;9.140;2022-09-03T06:54:50;2.30;;;1.53;;
22983;SDS011;11658;48.908;9.140;2022-09-03T06:57:15;1.60;;;1.50;;
22983;SDS011;11658;48.908;9.140;2022-09-03T06:59:41;3.40;;;1.73;;
22983;SDS011;11658;48.908;9.140;2022-09-03T07:02:08;2.70;;;1.73;;
22983;SDS011;11658;48.908;9.140;2022-09-03T07:04:34;3.87;;;1.67;;
22983;SDS011;11658;48.908;9.140;2022-09-03T07:06:59;1.70;;;1.53;;
22983;SDS011;11658;48.908;9.140;2022-09-03T07:09:26;2.33;;;1.90;;
22983;SDS011;11658;48.908;9.140;2022-09-03T07:11:52;3.37;;;1.70;;
22983;SDS011;11658;48.908;9.140;2022-09-03T07:14:19;2.40;;;1.80;;
22983;SDS011;11658;48.908;9.140;2022-09-03T07:16:46;3.80;;;1.73;;
22983;SDS011;11658;48.908;9.140;2022-09-03T07:19:12;5.50;;;2.00;;
22983;SDS011;11658;48.908;9.140;2022-09-03T07:21:38;2.77;;;1.80;;
22983;SDS011;11658;48.908;9.140;2022-09-03T07:24:08;1.80;;;1.70;;
22983;SDS011;11658;48.908;9.140;2022-09-03T07:26:43;4.27;;;2.10;;
22983;SDS011;11658;48.908;9.140;2022-09-03T07:29:10;1.93;;;1.63;;
22983;SDS011;11658;48.908;9.140;2022-09-03T07:31:38;4.10;;;1.83;;
22983;SDS011;11658;48.908;9.140;2022-09-03T07:34:06;3.03;;;1.67;;
22983;SDS011;11658;48.908;9.140;2022-09-03T07:36:37;3.13;;;1.90;;
22983;SDS011;11658;48.908;9.140;2022-09-03T07:39:08;4.97;;;2.00;;
22983;SDS011;11658;48.908;9.140;2022-09-03T07:41:35;2.40;;;1.80;;
22983;SDS011;11658;48.908;9.140;2022-09-03T07:44:01;2.40;;;2.00;;
22983;SDS011;11658;48.908;9.140;2022-09-03T07:46:30;1.90;;;1.60;;
22983;SDS011;11658;48.908;9.140;2022-09-03T07:48:58;2.10;;;1.90;;
22983;SDS011;11658;48.908;9.140;2022-09-03T07:51:29;2.70;;;2.10;;
22983;SDS011;11658;48.908;9.140;2022-09-03T07:53:57;2.77;;;2.17;;
22983;SDS011;11658;48.908;9.140;2022-09-03T07:56:25;2.47;;;1.97;;
22983;SDS011;11658;48.908;9.140;2022-09-03T07:58:51;3.30;;;1.90;;
22983;SDS011;11658;48.908;9.140;2022-09-03T08:01:19;2.00;;;1.80;;
22983;SDS011;11658;48.908;9.140;2022-09-03T08:03:47;2.43;;;1.93;;
22983;SDS011;11658;48.908;9.140;2022-09-03T08:06:15;2.40;;;2.17;;
22983;SDS011;11658;48.908;9.140;2022-09-03T08:08:42;3.93;;;2.30;;
22983;SDS011;11658;48.908;9.140;2022-09-03T08:11:15;3.17;;;2.30;;
22983;SDS011;11658;48.908;9.140;2022-09-03T08:14:04;2.20;;;2.00;;
22983;SDS011;11658;48.908;9.140;2022-09-03T08:16:34;2.10;;;1.90;;
22983;SDS011;11658;48.908;9.140;2022-09-03T08:19:01;2.40;;;2.20;;
22983;SDS011;11658;48.908;9.140;2022-09-03T08:21:27;2.33;;;2.13;;
22983;SDS011;11658;48.908;9.140;2022-09-03T08:23:53;3.13;;;2.10;;
22983;SDS011;11658;48.908;9.140;2022-09-03T08:26:26;4.70;;;2.10;;
22983;SDS011;11658;48.908;9.140;2022-09-03T08:28:54;3.17;;;2.27;;
22983;SDS011;11658;48.908;9.140;2022-09-03T08:31:20;3.10;;;2.73;;
22983;SDS011;11658;48.908;9.140;2022-09-03T08:33:48;3.47;;;2.50;;
22983;SDS011;11658;48.908;9.140;2022-09-03T08:38:46;3.53;;;2.20;;
22983;SDS011;11658;48.908;9.140;2022-09-03T08:41:14;3.03;;;2.53;;
22983;SDS011;11658;48.908;9.140;2022-09-03T08:46:09;3.80;;;2.30;;
22983;SDS011;11658;48.908;9.140;2022-09-03T08:48:35;3.10;;;2.70;;
22983;SDS011;11658;48.908;9.140;2022-09-03T08:51:01;2.53;;;2.33;;
22983;SDS011;11658;48.908;9.140;2022-09-03T08:56:07;3.30;;;2.33;;
22983;SDS011;11658;48.908;9.140;2022-09-03T08:58:35;3.13;;;2.70;;
22983;SDS011;11658;48.908;9.140;2022-09-03T09:06:29;3.57;;;2.50;;
22983;SDS011;11658;48.908;9.140;2022-09-03T09:20:31;2.33;;;2.20;;
22983;SDS011;11658;48.908;9.140;2022-09-03T09:23:07;3.57;;;3.20;;
22983;SDS011;11658;48.908;9.140;2022-09-03T09:25:42;2.20;;;2.00;;
22983;SDS011;11658;48.908;9.140;2022-09-03T09:30:44;3.13;;;2.13;;
22983;SDS011;11658;48.908;9.140;2022-09-03T09:33:15;2.50;;;2.30;;
22983;SDS011;11658;48.908;9.140;2022-09-03T09:35:43;2.67;;;2.23;;
22983;SDS011;11658;48.908;9.140;2022-09-03T09:38:10;2.50;;;2.30;;
22983;SDS011;11658;48.908;9.140;2022-09-03T09:40:37;3.45;;;2.03;;
22983;SDS011;11658;48.908;9.140;2022-09-03T09:43:13;4.85;;;2.20;;
22983;SDS011;11658;48.908;9.140;2022-09-03T09:45:49;2.22;;;1.98;;
22983;SDS011;11658;48.908;9.140;2022-09-03T09:53:42;3.83;;;2.20;;
22983;SDS011;11658;48.908;9.140;2022-09-03T09:56:09;2.15;;;2.05;;
22983;SDS011;11658;48.908;9.140;2022-09-03T09:58:48;3.20;;;2.40;;
22983;SDS011;11658;48.908;9.140;2022-09-03T10:01:20;2.80;;;1.98;;
22983;SDS011;11658;48.908;9.140;2022-09-03T10:06:15;3.33;;;2.25;;
22983;SDS011;11658;48.908;9.140;2022-09-03T10:09:17;3.47;;;2.25;;
22983;SDS011;11658;48.908;9.140;2022-09-03T10:11:48;4.35;;;2.42;;
22983;SDS011;11658;48.908;9.140;2022-09-03T10:14:27;2.27;;;2.07;;
22983;SDS011;11658;48.908;9.140;2022-09-03T10:17:02;2.10;;;1.90;;
22983;SDS011;11658;48.908;9.140;2022-09-03T10:19:57;2.70;;;2.40;;
22983;SDS011;11658;48.908;9.140;2022-09-03T10:22:44;2.77;;;2.33;;
22983;SDS011;11658;48.908;9.140;2022-09-03T10:25:15;4.93;;;2.40;;
22983;SDS011;11658;48.908;9.140;2022-09-03T10:27:43;2.55;;;2.25;;
22983;SDS011;11658;48.908;9.140;2022-09-03T10:30:10;3.50;;;2.25;;
22983;SDS011;11658;48.908;9.140;2022-09-03T10:40:37;2.53;;;2.28;;
22983;SDS011;11658;48.908;9.140;2022-09-03T10:48:38;5.68;;;2.80;;
22983;SDS011;11658;48.908;9.140;2022-09-03T10:51:23;4.43;;;2.00;;
22983;SDS011;11658;48.908;9.140;2022-09-03T10:54:07;2.42;;;2.20;;
22983;SDS011;11658;48.908;9.140;2022-09-03T10:56:53;2.60;;;1.92;;
22983;SDS011;11658;48.908;9.140;2022-09-03T10:59:35;2.50;;;2.30;;
22983;SDS011;11658;48.908;9.140;2022-09-03T11:02:33;2.47;;;2.13;;
22983;SDS011;11658;48.908;9.140;2022-09-03T11:05:22;3.28;;;2.20;;
22983;SDS011;11658;48.908;9.140;2022-09-03T11:08:00;2.30;;;2.10;;
22983;SDS011;11658;48.908;9.140;2022-09-03T11:10:34;2.40;;;2.20;;
22983;SDS011;11658;48.908;9.140;2022-09-03T11:13:37;3.35;;;1.92;;
22983;SDS011;11658;48.908;9.140;2022-09-03T11:16:27;2.30;;;2.10;;
22983;SDS011;11658;48.908;9.140;2022-09-03T11:19:00;2.42;;;2.22;;
22983;SDS011;11658;48.908;9.140;2022-09-03T11:21:29;2.15;;;2.05;;
22983;SDS011;11658;48.908;9.140;2022-09-03T11:24:19;2.13;;;1.92;;
22983;SDS011;11658;48.908;9.140;2022-09-03T11:32:21;2.22;;;2.10;;
22983;SDS011;11658;48.908;9.140;2022-09-03T11:34:53;2.00;;;1.90;;
22983;SDS011;11658;48.908;9.140;2022-09-03T11:37:25;2.13;;;1.98;;
22983;SDS011;11658;48.908;9.140;2022-09-03T11:39:53;4.22;;;1.80;;
22983;SDS011;11658;48.908;9.140;2022-09-03T11:42:44;2.17;;;1.98;;
22983;SDS011;11658;48.908;9.140;2022-09-03T11:45:19;3.03;;;2.13;;
22983;SDS011;11658;48.908;9.140;2022-09-03T11:47:47;2.38;;;1.80;;
22983;SDS011;11658;48.908;9.140;2022-09-03T11:52:53;2.15;;;1.95;;
22983;SDS011;11658;48.908;9.140;2022-09-03T11:55:32;2.17;;;1.92;;
22983;SDS011;11658;48.908;9.140;2022-09-03T11:58:34;2.67;;;1.98;;
22983;SDS011;11658;48.908;9.140;2022-09-03T12:01:04;1.95;;;1.80;;
22983;SDS011;11658;48.908;9.140;2022-09-03T12:03:41;2.22;;;2.03;;
22983;SDS011;11658;48.908;9.140;2022-09-03T12:14:49;2.50;;;2.15;;
22983;SDS011;11658;48.908;9.140;2022-09-03T12:19:51;3.20;;;2.20;;
22983;SDS011;11658;48.908;9.140;2022-09-03T12:22:19;5.70;;;2.30;;
22983;SDS011;11658;48.908;9.140;2022-09-03T12:24:46;2.53;;;2.10;;
22983;SDS011;11658;48.908;9.140;2022-09-03T12:27:17;5.90;;;2.22;;
22983;SDS011;11658;48.908;9.140;2022-09-03T12:29:58;2.45;;;2.20;;
22983;SDS011;11658;48.908;9.140;2022-09-03T12:32:32;2.85;;;2.20;;
22983;SDS011;11658;48.908;9.140;2022-09-03T12:35:10;3.45;;;2.63;;
22983;SDS011;11658;48.908;9.140;2022-09-03T12:37:42;2.30;;;2.10;;
22983;SDS011;11658;48.908;9.140;2022-09-03T12:40:20;3.50;;;2.40;;
22983;SDS011;11658;48.908;9.140;2022-09-03T12:42:47;2.92;;;2.50;;
22983;SDS011;11658;48.908;9.140;2022-09-03T12:45:14;2.60;;;2.40;;
22983;SDS011;11658;48.908;9.140;2022-09-03T12:47:44;4.10;;;2.40;;
22983;SDS011;11658;48.908;9.140;2022-09-03T12:50:14;6.07;;;2.60;;
22983;SDS011;11658;48.908;9.140;2022-09-03T12:58:11;2.15;;;1.83;;
22983;SDS011;11658;48.908;9.140;2022-09-03T13:00:48;4.43;;;2.20;;
22983;SDS011;11658;48.908;9.140;2022-09-03T13:03:34;2.30;;;1.73;;
22983;SDS011;11658;48.908;9.140;2022-09-03T13:06:08;1.77;;;1.60;;
22983;SDS011;11658;48.908;9.140;2022-09-03T13:08:38;1.80;;;1.70;;
22983;SDS011;11658;48.908;9.140;2022-09-03T13:11:13;2.23;;;1.70;;
22983;SDS011;11658;48.908;9.140;2022-09-03T13:13:48;3.80;;;1.93;;
22983;SDS011;11658;48.908;9.140;2022-09-03T13:18:54;3.87;;;2.20;;
22983;SDS011;11658;48.908;9.140;2022-09-03T13:21:57;3.30;;;1.80;;
22983;SDS011;11658;48.908;9.140;2022-09-03T13:30:14;2.50;;;1.83;;
22983;SDS011;11658;48.908;9.140;2022-09-03T13:36:03;1.97;;;1.77;;
22983;SDS011;11658;48.908;9.140;2022-09-03T13:41:11;2.57;;;1.73;;
22983;SDS011;11658;48.908;9.140;2022-09-03T13:43:46;2.93;;;1.60;;
22983;SDS011;11658;48.908;9.140;2022-09-03T13:46:34;1.50;;;1.40;;
22983;SDS011;11658;48.908;9.140;2022-09-03T13:49:26;1.57;;;1.47;;
22983;SDS011;11658;48.908;9.140;2022-09-03T13:52:44;3.30;;;1.50;;
22983;SDS011;11658;48.908;9.140;2022-09-03T13:55:34;2.03;;;1.40;;
22983;SDS011;11658;48.908;9.140;2022-09-03T13:58:10;2.33;;;1.37;;
22983;SDS011;11658;48.908;9.140;2022-09-03T14:12:12;1.88;;;1.23;;
22983;SDS011;11658;48.908;9.140;2022-09-03T14:15:00;1.50;;;1.10;;
22983;SDS011;11658;48.908;9.140;2022-09-03T14:17:47;1.53;;;1.30;;
22983;SDS011;11658;48.908;9.140;2022-09-03T14:20:34;1.50;;;1.30;;
22983;SDS011;11658;48.908;9.140;2022-09-03T14:23:22;1.80;;;1.43;;
22983;SDS011;11658;48.908;9.140;2022-09-03T14:25:59;2.47;;;1.50;;
22983;SDS011;11658;48.908;9.140;2022-09-03T14:31:06;1.73;;;1.40;;
22983;SDS011;11658;48.908;9.140;2022-09-03T14:36:25;2.63;;;1.90;;
22983;SDS011;11658;48.908;9.140;2022-09-03T14:52:26;2.60;;;1.43;;
22983;SDS011;11658;48.908;9.140;2022-09-03T15:00:42;1.80;;;1.50;;
22983;SDS011;11658;48.908;9.140;2022-09-03T15:08:53;1.73;;;1.60;;
22983;SDS011;11658;48.908;9.140;2022-09-03T15:11:51;2.03;;;1.60;;
22983;SDS011;11658;48.908;9.140;2022-09-03T15:14:29;2.73;;;1.80;;
22983;SDS011;11658;48.908;9.140;2022-09-03T15:17:53;2.53;;;1.40;;
22983;SDS011;11658;48.908;9.140;2022-09-03T15:20:08;2.80;;;1.80;;
22983;SDS011;11658;48.908;9.140;2022-09-03T15:23:28;2.93;;;1.73;;
22983;SDS011;11658;48.908;9.140;2022-09-03T15:28:14;2.57;;;1.83;;
22983;SDS011;11658;48.908;9.140;2022-09-03T15:30:59;3.73;;;1.70;;
22983;SDS011;11658;48.908;9.140;2022-09-03T15:40:56;1.80;;;1.70;;
22983;SDS011;11658;48.908;9.140;2022-09-03T15:43:29;2.80;;;1.67;;
22983;SDS011;11658;48.908;9.140;2022-09-03T15:46:02;2.20;;;1.90;;
22983;SDS011;11658;48.908;9.140;2022-09-03T15:54:11;2.17;;;1.80;;
22983;SDS011;11658;48.908;9.140;2022-09-03T15:57:01;2.10;;;1.67;;
22983;SDS011;11658;48.908;9.140;2022-09-03T16:04:41;2.60;;;2.20;;
22983;SDS011;11658;48.908;9.140;2022-09-03T16:19:17;4.50;;;2.17;;
22983;SDS011;11658;48.908;9.140;2022-09-03T16:24:56;3.70;;;2.27;;
22983;SDS011;11658;48.908;9.140;2022-09-03T16:27:24;2.57;;;2.30;;
22983;SDS011;11658;48.908;9.140;2022-09-03T16:29:57;3.80;;;2.30;;
22983;SDS011;11658;48.908;9.140;2022-09-03T16:38:10;3.33;;;2.30;;
22983;SDS011;11658;48.908;9.140;2022-09-03T16:46:23;2.50;;;2.15;;
22983;SDS011;11658;48.908;9.140;2022-09-03T16:54:15;4.18;;;2.40;;
22983;SDS011;11658;48.908;9.140;2022-09-03T16:59:46;3.83;;;2.47;;
22983;SDS011;11658;48.908;9.140;2022-09-03T17:10:45;3.05;;;1.95;;
22983;SDS011;11658;48.908;9.140;2022-09-03T17:18:52;2.22;;;1.60;;
22983;SDS011;11658;48.908;9.140;2022-09-03T17:24:08;3.60;;;1.90;;
22983;SDS011;11658;48.908;9.140;2022-09-03T17:48:57;3.33;;;2.43;;
22983;SDS011;11658;48.908;9.140;2022-09-03T18:02:44;3.27;;;2.70;;
22983;SDS011;11658;48.908;9.140;2022-09-03T18:04:45;5.40;;;2.73;;
22983;SDS011;11658;48.908;9.140;2022-09-03T18:07:22;2.87;;;2.53;;
22983;SDS011;11658;48.908;9.140;2022-09-03T18:12:48;5.13;;;3.50;;
22983;SDS011;11658;48.908;9.140;2022-09-03T18:15:20;3.43;;;2.60;;
22983;SDS011;11658;48.908;9.140;2022-09-03T18:18:00;3.10;;;2.50;;
22983;SDS011;11658;48.908;9.140;2022-09-03T18:20:46;8.07;;;5.30;;
22983;SDS011;11658;48.908;9.140;2022-09-03T18:26:25;5.63;;;3.10;;
22983;SDS011;11658;48.908;9.140;2022-09-03T18:32:17;6.57;;;3.30;;
22983;SDS011;11658;48.908;9.140;2022-09-03T18:35:01;3.77;;;3.30;;
22983;SDS011;11658;48.908;9.140;2022-09-03T18:37:46;5.00;;;3.40;;
22983;SDS011;11658;48.908;9.140;2022-09-03T18:41:07;3.37;;;2.90;;
22983;SDS011;11658;48.908;9.140;2022-09-03T18:49:49;4.97;;;3.00;;
22983;SDS011;11658;48.908;9.140;2022-09-03T18:52:44;3.30;;;3.00;;
22983;SDS011;11658;48.908;9.140;2022-09-03T19:01:37;5.07;;;3.77;;
22983;SDS011;11658;48.908;9.140;2022-09-03T19:07:35;3.67;;;2.90;;
22983;SDS011;11658;48.908;9.140;2022-09-03T19:11:16;5.03;;;3.50;;
22983;SDS011;11658;48.908;9.140;2022-09-03T19:13:39;4.30;;;3.27;;
22983;SDS011;11658;48.908;9.140;2022-09-03T19:22:34;5.23;;;3.73;;
22983;SDS011;11658;48.908;9.140;2022-09-03T19:25:20;3.80;;;3.40;;
22983;SDS011;11658;48.908;9.140;2022-09-03T19:28:09;6.57;;;3.30;;
22983;SDS011;11658;48.908;9.140;2022-09-03T19:37:14;5.43;;;3.57;;
22983;SDS011;11658;48.908;9.140;2022-09-03T19:40:24;3.37;;;2.97;;
22983;SDS011;11658;48.908;9.140;2022-09-03T19:52:25;3.60;;;3.30;;
22983;SDS011;11658;48.908;9.140;2022-09-03T19:55:25;4.20;;;3.40;;
22983;SDS011;11658;48.908;9.140;2022-09-03T19:58:16;4.13;;;3.33;;
22983;SDS011;11658;48.908;9.140;2022-09-03T20:01:03;5.93;;;3.67;;
22983;SDS011;11658;48.908;9.140;2022-09-03T20:03:48;5.43;;;4.10;;
22983;SDS011;11658;48.908;9.140;2022-09-03T20:06:33;4.87;;;4.17;;
22983;SDS011;11658;48.908;9.140;2022-09-03T20:09:19;5.30;;;4.80;;
22983;SDS011;11658;48.908;9.140;2022-09-03T20:12:08;5.93;;;4.93;;
22983;SDS011;11658;48.908;9.140;2022-09-03T20:14:35;5.50;;;4.97;;
22983;SDS011;11658;48.908;9.140;2022-09-03T20:17:05;4.90;;;4.40;;
22983;SDS011;11658;48.908;9.140;2022-09-03T20:20:36;5.47;;;4.10;;
22983;SDS011;11658;48.908;9.140;2022-09-03T20:22:59;7.57;;;4.77;;
22983;SDS011;11658;48.908;9.140;2022-09-03T20:31:00;5.10;;;4.23;;
22983;SDS011;11658;48.908;9.140;2022-09-03T20:33:45;5.63;;;3.60;;
22983;SDS011;11658;48.908;9.140;2022-09-03T20:56:53;3.33;;;3.00;;
22983;SDS011;11658;48.908;9.140;2022-09-03T20:58:56;5.73;;;3.37;;
22983;SDS011;11658;48.908;9.140;2022-09-03T21:01:54;3.70;;;3.10;;
22983;SDS011;11658;48.908;9.140;2022-09-03T21:09:50;4.53;;;3.97;;
22983;SDS011;11658;48.908;9.140;2022-09-03T21:15:13;4.57;;;3.30;;
22983;SDS011;11658;48.908;9.140;2022-09-03T21:17:54;3.63;;;2.70;;
22983;SDS011;11658;48.908;9.140;2022-09-03T21:20:34;3.07;;;2.73;;
22983;SDS011;11658;48.908;9.140;2022-09-03T21:23:07;3.10;;;2.50;;
22983;SDS011;11658;48.908;9.140;2022-09-03T21:26:05;2.37;;;2.17;;
22983;SDS011;11658;48.908;9.140;2022-09-03T21:28:26;2.90;;;2.40;;
22983;SDS011;11658;48.908;9.140;2022-09-03T21:31:03;3.10;;;2.30;;
22983;SDS011;11658;48.908;9.140;2022-09-03T21:33:37;2.57;;;2.37;;
22983;SDS011;11658;48.908;9.140;2022-09-03T21:36:09;2.63;;;2.07;;
22983;SDS011;11658;48.908;9.140;2022-09-03T21:38:38;2.47;;;2.27;;
22983;SDS011;11658;48.908;9.140;2022-09-03T21:41:16;2.60;;;2.00;;
22983;SDS011;11658;48.908;9.140;2022-09-03T21:43:56;2.53;;;2.00;;
22983;SDS011;11658;48.908;9.140;2022-09-03T21:49:27;3.20;;;2.53;;
22983;SDS011;11658;48.908;9.140;2022-09-03T21:54:31;2.90;;;2.60;;
22983;SDS011;11658;48.908;9.140;2022-09-03T22:02:27;2.63;;;2.40;;
22983;SDS011;11658;48.908;9.140;2022-09-03T22:04:55;4.00;;;2.60;;
22983;SDS011;11658;48.908;9.140;2022-09-03T22:10:48;3.67;;;2.43;;
22983;SDS011;11658;48.908;9.140;2022-09-03T22:13:30;3.03;;;2.53;;
22983;SDS011;11658;48.908;9.140;2022-09-03T22:18:37;3.17;;;2.70;;
22983;SDS011;11658;48.908;9.140;2022-09-03T22:21:11;3.33;;;2.90;;
22983;SDS011;11658;48.908;9.140;2022-09-03T22:26:14;3.73;;;3.03;;
22983;SDS011;11658;48.908;9.140;2022-09-03T22:28:52;6.20;;;3.40;;
22983;SDS011;11658;48.908;9.140;2022-09-03T22:34:25;5.00;;;3.73;;
22983;SDS011;11658;48.908;9.140;2022-09-03T22:37:46;5.87;;;4.00;;
22983;SDS011;11658;48.908;9.140;2022-09-03T22:40:18;6.13;;;3.87;;
22983;SDS011;11658;48.908;9.140;2022-09-03T22:46:05;4.77;;;3.47;;
22983;SDS011;11658;48.908;9.140;2022-09-03T22:48:53;4.43;;;3.90;;
22983;SDS011;11658;48.908;9.140;2022-09-03T22:51:35;5.57;;;4.27;;
22983;SDS011;11658;48.908;9.140;2022-09-03T22:57:41;6.23;;;4.63;;
22983;SDS011;11658;48.908;9.140;2022-09-03T23:00:13;5.27;;;4.33;;
